Terminal Aerodrome Forecast
Issued by NWS El Paso, TX

Home | Current Version | Previous Version | Text Only | Print | Product List | Glossary On
Versions: 1 2 3 4 5 6 7 8 9 10 11 12 13
000
FTUS44 KEPZ 211720
TAFELP
TAF
KELP 211720Z 2118/2218 26025G37KT P6SM VCSH SCT040 BKN120
     FM212100 27035G45KT P6SM BKN060
     FM220000 27037G47KT P6SM SCT060
     FM220600 28025G35KT P6SM FEW050
     FM221200 27021G29KT P6SM SKC
     FM221500 26012KT P6SM FEW150=

USA.gov is the U.S. government's official web portal to all federal, state and local government web resources and services.